Time;durP1;ratioP1;P1;durP2;ratioP2;P2;SDS_P1;SDS_P2;PMS_P1;PMS_P2;Temp;Humidity;BMP_temperature;BMP_pressure;BME280_temperature;BME280_humidity;BME280_pressure;Samples;Min_cycle;Max_cycle;Signal;HPM_P1;HPM_P2
2023/06/12 00:01:28;;;;;;;11.90;6.30;;;;;;;19.43;86.68;94324.66;5054398;28;20509;-79
2023/06/12 00:03:57;;;;;;;7.97;5.80;;;;;;;19.39;87.35;94320.75;5053870;28;20790;-79
2023/06/12 00:06:24;;;;;;;9.33;7.00;;;;;;;19.38;87.18;94321.78;5054506;28;20905;-79
2023/06/12 00:08:51;;;;;;;6.60;5.97;;;;;;;19.34;87.39;94317.03;5035633;28;20463;-79
2023/06/12 00:11:18;;;;;;;9.23;6.13;;;;;;;19.26;87.09;94319.84;5053938;28;20503;-78
2023/06/12 00:13:46;;;;;;;8.97;6.90;;;;;;;19.18;86.79;94319.00;5035593;28;20447;-79
2023/06/12 00:16:13;;;;;;;8.10;6.63;;;;;;;19.13;86.87;94318.78;5054154;28;20438;-79
2023/06/12 00:18:40;;;;;;;8.50;5.90;;;;;;;19.10;87.20;94321.03;5054059;28;20791;-79
2023/06/12 00:21:09;;;;;;;7.93;6.20;;;;;;;19.08;87.34;94321.22;5035205;28;20833;-79
2023/06/12 00:23:36;;;;;;;6.93;6.30;;;;;;;19.03;88.59;94323.63;5054000;28;20455;-79
2023/06/12 00:26:03;;;;;;;10.37;6.53;;;;;;;19.05;87.90;94320.75;5054125;28;20449;-79
2023/06/12 00:28:30;;;;;;;9.43;6.20;;;;;;;19.04;87.46;94325.25;5052085;28;20543;-79
2023/06/12 00:30:57;;;;;;;9.43;6.53;;;;;;;19.05;88.21;94316.25;5053604;28;20513;-79
2023/06/12 00:33:24;;;;;;;7.60;6.20;;;;;;;19.01;87.14;94314.19;5053593;28;20447;-79
2023/06/12 00:35:51;;;;;;;6.03;5.53;;;;;;;18.96;87.05;94306.00;5053750;28;20492;-79
2023/06/12 00:38:22;;;;;;;10.17;6.00;;;;;;;18.93;87.67;94309.84;5053910;28;20915;-79
2023/06/12 00:40:49;;;;;;;8.60;5.80;;;;;;;18.89;88.04;94316.59;5053583;28;20987;-79
2023/06/12 00:43:15;;;;;;;7.10;5.73;;;;;;;18.83;88.46;94310.22;5053082;28;20475;-79
2023/06/12 00:45:42;;;;;;;7.43;6.30;;;;;;;18.83;88.16;94318.19;5053430;28;20895;-79
2023/06/12 00:48:09;;;;;;;6.63;6.03;;;;;;;18.83;88.28;94312.88;5053682;28;20456;-79
2023/06/12 00:50:37;;;;;;;6.30;5.70;;;;;;;18.81;88.38;94306.94;5034899;28;20444;-79
2023/06/12 00:53:04;;;;;;;9.30;5.90;;;;;;;18.84;89.40;94314.53;5053572;28;20488;-78
2023/06/12 00:55:32;;;;;;;5.87;5.47;;;;;;;18.81;88.62;94320.22;5053419;28;20491;-79
2023/06/12 00:58:01;;;;;;;8.07;5.53;;;;;;;18.83;88.53;94323.50;5053476;28;20450;-79
2023/06/12 01:00:28;;;;;;;10.37;5.97;;;;;;;18.81;88.25;94319.41;5053473;28;20785;-78
2023/06/12 01:03:03;;;;;;;6.97;6.40;;;;;;;18.78;87.76;94323.25;5053608;28;20518;-79
2023/06/12 01:05:33;;;;;;;6.97;5.87;;;;;;;18.72;87.65;94321.38;5053163;28;20458;-79
2023/06/12 01:08:15;;;;;;;9.73;6.53;;;;;;;18.77;87.79;94326.09;5052878;28;20978;-79
2023/06/12 01:10:47;;;;;;;6.90;6.17;;;;;;;18.72;87.09;94326.69;5053405;28;20237;-79
2023/06/12 01:13:16;;;;;;;7.80;5.77;;;;;;;18.68;87.21;94327.28;5053430;28;20852;-79
2023/06/12 01:15:43;;;;;;;8.93;6.07;;;;;;;18.61;86.67;94321.88;5053147;28;20495;-79
2023/06/12 01:18:10;;;;;;;11.57;6.47;;;;;;;18.58;87.50;94327.59;5052996;28;20855;-79
2023/06/12 01:20:37;;;;;;;7.47;6.70;;;;;;;18.55;88.00;94322.66;5052915;28;20444;-79
2023/06/12 01:23:11;;;;;;;11.90;5.80;;;;;;;18.52;88.62;94323.88;5053511;28;20566;-79
2023/06/12 01:26:33;;;;;;;9.80;5.80;;;;;;;18.58;87.81;94324.94;5053184;28;20447;-79
2023/06/12 01:29:40;;;;;;;9.27;6.10;;;;;;;18.57;87.75;94316.13;5011296;28;20550;-79
2023/06/12 01:32:14;;;;;;;10.23;6.50;;;;;;;18.63;87.37;94319.88;5011393;28;21298;-79
2023/06/12 01:34:50;;;;;;;6.00;5.50;;;;;;;18.69;88.35;94328.91;5011240;28;21013;-79
2023/06/12 01:37:25;;;;;;;6.10;5.50;;;;;;;18.67;86.88;94322.97;5010835;28;20553;-79
2023/06/12 01:39:58;;;;;;;6.97;6.27;;;;;;;18.64;87.26;94324.19;5011054;28;20446;-79
2023/06/12 01:42:26;;;;;;;10.90;6.33;;;;;;;18.54;86.88;94324.50;5011006;28;20531;-79
2023/06/12 01:44:53;;;;;;;11.70;6.63;;;;;;;18.60;87.83;94322.06;5010980;28;20474;-80
2023/06/12 01:47:22;;;;;;;7.47;6.03;;;;;;;18.62;88.17;94318.25;5010796;28;20453;-79
2023/06/12 01:49:49;;;;;;;6.13;5.53;;;;;;;18.63;88.63;94317.22;5011066;28;20449;-79
2023/06/12 01:52:16;;;;;;;8.43;6.20;;;;;;;18.62;87.89;94322.69;4994383;28;21015;-79
2023/06/12 01:54:45;;;;;;;17.07;6.80;;;;;;;18.64;87.75;94315.38;5011156;28;20483;-79
2023/06/12 01:57:12;;;;;;;6.07;5.47;;;;;;;18.69;88.30;94318.28;5015006;28;20457;-79
2023/06/12 01:59:40;;;;;;;7.43;6.30;;;;;;;18.76;88.29;94324.47;5014774;28;20443;-79
2023/06/12 02:02:07;;;;;;;9.67;5.87;;;;;;;18.80;86.71;94320.41;5024284;28;21002;-79
2023/06/12 02:04:35;;;;;;;8.33;6.13;;;;;;;18.82;87.21;94321.03;5056470;28;20843;-80
2023/06/12 02:07:02;;;;;;;7.13;6.43;;;;;;;18.85;87.18;94332.09;5056254;28;20455;-80
2023/06/12 02:09:29;;;;;;;6.40;5.77;;;;;;;18.87;86.89;94330.06;5056376;28;21156;-79
2023/06/12 02:11:56;;;;;;;8.03;5.87;;;;;;;18.84;87.08;94319.84;5056845;28;20462;-79
2023/06/12 02:14:23;;;;;;;8.03;5.53;;;;;;;18.91;87.56;94324.38;5056232;28;20921;-79
2023/06/12 02:16:53;;;;;;;10.53;5.80;;;;;;;18.95;86.29;94337.06;5056260;28;20941;-79
2023/06/12 02:19:22;;;;;;;7.83;5.33;;;;;;;18.94;86.41;94335.44;5055752;28;20982;-80
2023/06/12 02:21:50;;;;;;;8.07;5.80;;;;;;;18.94;86.37;94334.59;5056338;28;20449;-79
2023/06/12 02:24:17;;;;;;;7.73;5.50;;;;;;;18.98;87.06;94335.84;5056169;28;20929;-79
2023/06/12 02:26:44;;;;;;;7.77;5.83;;;;;;;18.97;86.73;94340.34;5055964;28;20509;-79
2023/06/12 02:29:14;;;;;;;8.10;6.77;;;;;;;18.98;87.32;94330.53;5056227;28;20514;-80
2023/06/12 02:31:41;;;;;;;7.67;6.10;;;;;;;19.00;86.01;94339.97;5070695;28;20471;-79
2023/06/12 02:34:08;;;;;;;7.27;5.60;;;;;;;19.03;85.56;94338.75;5055777;28;20848;-80
2023/06/12 02:36:39;;;;;;;10.93;6.17;;;;;;;19.04;86.91;94341.22;5055798;28;20511;-79
2023/06/12 02:39:08;;;;;;;8.43;5.80;;;;;;;19.08;86.74;94341.63;5056012;28;20451;-80
2023/06/12 02:41:35;;;;;;;8.40;5.83;;;;;;;19.10;85.99;94348.44;5037395;28;20957;-79
2023/06/12 02:44:01;;;;;;;8.30;5.83;;;;;;;19.14;85.70;94346.19;5055570;28;20533;-79
2023/06/12 02:46:28;;;;;;;6.13;5.63;;;;;;;19.12;85.11;94354.38;5056206;28;20472;-79
2023/06/12 02:48:55;;;;;;;6.70;6.00;;;;;;;19.14;84.96;94351.53;5056095;28;20514;-80
2023/06/12 02:51:22;;;;;;;6.60;6.00;;;;;;;19.13;84.89;94353.34;5055911;28;20493;-79
2023/06/12 02:53:48;;;;;;;11.40;6.70;;;;;;;19.05;84.24;94356.16;5055935;28;20456;-79
2023/06/12 02:56:16;;;;;;;7.03;6.30;;;;;;;19.02;84.04;94358.38;5055372;28;20535;-79
2023/06/12 02:58:44;;;;;;;7.13;6.43;;;;;;;18.99;83.91;94362.25;5053509;28;20434;-80
2023/06/12 03:01:11;;;;;;;7.27;5.80;;;;;;;18.95;84.68;94363.66;5055419;28;20886;-79
2023/06/12 03:03:39;;;;;;;7.27;6.20;;;;;;;18.95;84.88;94368.97;5055796;28;20449;-80
2023/06/12 03:06:06;;;;;;;8.40;5.90;;;;;;;18.94;85.82;94364.69;5055061;28;20474;-80
2023/06/12 03:08:33;;;;;;;15.03;6.00;;;;;;;18.93;84.73;94375.50;5054877;28;20451;-80
2023/06/12 03:10:59;;;;;;;6.70;6.10;;;;;;;18.92;85.45;94368.56;5055328;28;20444;-80
2023/06/12 03:13:28;;;;;;;6.03;5.43;;;;;;;18.94;85.09;94370.00;5055551;28;20520;-80
2023/06/12 03:15:55;;;;;;;9.83;6.40;;;;;;;18.93;85.32;94365.69;5055070;28;21014;-79
2023/06/12 03:18:21;;;;;;;8.30;6.10;;;;;;;18.92;85.07;94365.88;5055516;28;20533;-79
2023/06/12 03:20:48;;;;;;;7.00;5.93;;;;;;;18.88;85.38;94363.63;5036602;28;20435;-79
2023/06/12 03:23:16;;;;;;;6.73;5.97;;;;;;;18.84;84.77;94358.88;5055056;28;20452;-79
2023/06/12 03:25:42;;;;;;;7.23;6.63;;;;;;;18.76;85.18;94367.00;5055094;28;20494;-78
2023/06/12 03:28:09;;;;;;;8.83;6.20;;;;;;;18.74;85.75;94375.16;5052777;28;20452;-79
2023/06/12 03:30:37;;;;;;;8.90;5.80;;;;;;;18.71;86.46;94366.75;5055137;28;20485;-83
2023/06/12 03:33:04;;;;;;;7.53;6.53;;;;;;;18.75;88.66;94368.00;5055163;28;20462;-81
2023/06/12 03:35:31;;;;;;;8.13;5.90;;;;;;;18.81;89.83;94367.25;5055023;28;20491;-81
2023/06/12 03:37:58;;;;;;;6.87;6.10;;;;;;;18.91;90.88;94366.91;5055102;28;20844;-82
2023/06/12 03:40:25;;;;;;;7.30;6.50;;;;;;;18.88;87.95;94360.97;5054706;28;20510;-82
2023/06/12 03:42:51;;;;;;;9.73;7.00;;;;;;;18.90;87.35;94360.78;5019675;28;20484;-81
2023/06/12 03:45:18;;;;;;;9.17;6.33;;;;;;;19.06;90.50;94360.44;5054925;28;20820;-84
2023/06/12 03:47:46;;;;;;;9.13;6.20;;;;;;;19.57;87.18;94354.84;5022989;28;20522;-85
2023/06/12 03:50:13;;;;;;;10.00;6.37;;;;;;;20.01;84.28;94358.91;5035022;28;20428;-83
2023/06/12 03:52:40;;;;;;;8.43;5.50;;;;;;;20.40;81.22;94358.19;5034626;28;20461;-84
2023/06/12 03:55:08;;;;;;;7.03;5.40;;;;;;;20.68;79.74;94350.00;5036179;28;20486;-84
2023/06/12 03:57:35;;;;;;;6.50;5.80;;;;;;;20.94;79.14;94355.31;5043441;28;20977;-83
2023/06/12 04:00:02;;;;;;;6.63;5.67;;;;;;;21.03;77.89;94350.59;5035886;28;20914;-83
2023/06/12 04:05:53;;;;;;;8.17;5.90;;;;;;;21.14;74.81;94359.81;5053372;28;20430;-81
2023/06/12 04:08:20;;;;;;;6.63;5.93;;;;;;;21.03;75.47;94363.91;5054428;28;20426;-81
2023/06/12 04:10:47;;;;;;;7.10;6.47;;;;;;;20.84;76.03;94357.59;5019461;28;21369;-82
2023/06/12 04:13:14;;;;;;;12.00;6.03;;;;;;;20.73;77.10;94353.69;5054803;28;20442;-81
2023/06/12 04:15:41;;;;;;;6.90;6.20;;;;;;;20.67;77.61;94356.34;5054295;28;20480;-80
2023/06/12 04:18:09;;;;;;;10.93;6.80;;;;;;;20.55;78.08;94358.00;5053243;28;20464;-80
2023/06/12 04:20:38;;;;;;;9.03;6.73;;;;;;;20.47;78.49;94364.34;5054583;28;21176;-80
2023/06/12 04:23:11;;;;;;;8.17;7.00;;;;;;;20.33;79.32;94350.16;5037078;28;20866;-80
2023/06/12 04:25:38;;;;;;;13.07;5.90;;;;;;;20.29;80.62;94356.91;5053438;28;20468;-80
2023/06/12 04:28:07;;;;;;;12.47;7.00;;;;;;;20.27;81.87;94353.63;5053933;28;20428;-80
2023/06/12 04:30:35;;;;;;;8.90;6.50;;;;;;;20.15;82.17;94349.91;5053823;28;20539;-80
2023/06/12 04:33:02;;;;;;;9.97;7.60;;;;;;;20.18;82.49;94356.66;5054211;28;20472;-80
2023/06/12 04:35:29;;;;;;;15.07;8.30;;;;;;;20.16;82.34;94353.38;5035128;28;20557;-80
2023/06/12 04:37:56;;;;;;;11.93;6.90;;;;;;;20.01;82.62;94361.56;5054276;28;20864;-80
2023/06/12 04:40:24;;;;;;;7.40;6.67;;;;;;;20.01;84.22;94361.56;5053203;28;20430;-80
2023/06/12 04:42:56;;;;;;;7.60;6.83;;;;;;;20.00;84.04;94352.75;5053966;28;20833;-80
2023/06/12 04:45:23;;;;;;;8.63;6.47;;;;;;;20.06;83.53;94357.28;5053748;28;20491;-80
2023/06/12 04:47:50;;;;;;;8.00;6.67;;;;;;;20.11;82.92;94359.31;5053667;28;20430;-81
2023/06/12 04:50:18;;;;;;;7.20;6.40;;;;;;;20.23;83.29;94362.22;5035134;28;20459;-80
2023/06/12 04:52:47;;;;;;;16.80;6.87;;;;;;;20.48;82.59;94357.97;5053737;28;20903;-80
2023/06/12 04:55:16;;;;;;;7.57;6.20;;;;;;;20.77;80.98;94359.44;5053486;28;20430;-80
2023/06/12 04:57:45;;;;;;;10.40;7.57;;;;;;;21.16;81.41;94363.09;5053917;28;20442;-80
2023/06/12 05:00:15;;;;;;;9.97;6.83;;;;;;;21.55;81.67;94352.34;5051655;28;20973;-81
2023/06/12 05:02:41;;;;;;;22.50;7.63;;;;;;;21.86;79.93;94359.63;5032452;28;20463;-81
2023/06/12 05:05:11;;;;;;;15.07;7.93;;;;;;;21.96;78.00;94362.66;5032039;28;20454;-81
2023/06/12 05:07:41;;;;;;;15.73;7.67;;;;;;;21.88;81.44;94352.22;5032079;28;20452;-85
2023/06/12 05:10:08;;;;;;;15.73;7.30;;;;;;;21.93;81.94;94355.06;4998169;28;20470;-82
2023/06/12 05:12:35;;;;;;;8.20;7.40;;;;;;;21.56;78.97;94369.19;5022121;28;20450;-84
2023/06/12 05:15:03;;;;;;;18.83;9.13;;;;;;;21.10;81.91;94361.25;5052176;28;20812;-81
2023/06/12 05:17:31;;;;;;;14.33;8.53;;;;;;;20.60;82.48;94363.53;5016839;28;20448;-81
2023/06/12 05:19:58;;;;;;;11.47;8.70;;;;;;;20.62;82.65;94366.81;5052098;28;20457;-80
2023/06/12 05:22:24;;;;;;;11.10;8.90;;;;;;;19.86;84.88;94366.22;5051870;28;20451;-81
2023/06/12 05:24:51;;;;;;;11.53;9.70;;;;;;;19.93;85.48;94362.53;5052002;28;20443;-80
2023/06/12 05:27:19;;;;;;;10.10;9.00;;;;;;;19.79;87.58;94366.19;5051796;28;20478;-81
2023/06/12 05:29:45;;;;;;;14.30;9.17;;;;;;;19.86;88.35;94366.22;5052021;28;20453;-81
2023/06/12 05:32:14;;;;;;;9.90;8.90;;;;;;;20.25;87.12;94365.53;5056412;28;20960;-81
2023/06/12 05:34:41;;;;;;;10.50;8.50;;;;;;;20.52;86.40;94374.38;5056855;28;20937;-81
2023/06/12 05:37:08;;;;;;;12.93;9.27;;;;;;;20.73;85.34;94369.69;5056113;28;20564;-81
2023/06/12 05:39:35;;;;;;;10.27;9.23;;;;;;;20.86;84.99;94376.88;5055678;28;20431;-81
2023/06/12 05:42:01;;;;;;;11.20;8.67;;;;;;;20.62;84.37;94383.63;5055881;28;20447;-81
2023/06/12 05:44:28;;;;;;;16.50;10.37;;;;;;;20.50;85.44;94379.09;5055260;28;20992;-81
2023/06/12 05:46:55;;;;;;;10.27;9.20;;;;;;;20.76;86.07;94375.63;5055815;28;20455;-81
2023/06/12 05:49:23;;;;;;;14.80;9.40;;;;;;;20.83;85.02;94379.97;5055374;28;20854;-81
2023/06/12 05:51:50;;;;;;;12.00;8.63;;;;;;;20.95;83.52;94382.81;5055612;28;20451;-81
2023/06/12 05:54:17;;;;;;;12.20;9.23;;;;;;;21.19;82.64;94379.53;5055504;28;20639;-81
2023/06/12 05:56:44;;;;;;;15.60;10.07;;;;;;;21.14;82.50;94378.50;5055325;28;20494;-81
2023/06/12 05:59:10;;;;;;;10.23;7.97;;;;;;;21.35;82.52;94388.94;5055708;28;20445;-81
2023/06/12 06:01:37;;;;;;;16.17;8.80;;;;;;;21.29;79.12;94387.13;5055384;28;20455;-81
2023/06/12 06:04:05;;;;;;;11.30;8.90;;;;;;;21.20;78.93;94388.34;5055619;28;20449;-81
2023/06/12 06:06:34;;;;;;;17.30;9.10;;;;;;;21.05;80.67;94385.88;5055013;28;20448;-81
2023/06/12 06:09:00;;;;;;;9.67;8.63;;;;;;;20.94;82.11;94376.66;5055281;28;20447;-81
2023/06/12 06:11:28;;;;;;;11.27;7.83;;;;;;;20.98;82.21;94380.56;5055516;28;20471;-81
2023/06/12 06:13:55;;;;;;;13.47;10.33;;;;;;;20.90;82.76;94380.78;5055115;28;20862;-80
2023/06/12 06:16:21;;;;;;;16.33;9.83;;;;;;;21.01;83.46;94376.66;5055075;28;20483;-81
2023/06/12 06:18:48;;;;;;;17.03;9.17;;;;;;;21.05;83.16;94380.53;5055057;28;20451;-81
2023/06/12 06:21:15;;;;;;;11.90;9.20;;;;;;;21.01;83.79;94377.47;5055188;28;20447;-81
2023/06/12 06:23:43;;;;;;;14.00;8.97;;;;;;;20.59;84.94;94383.22;5055320;28;20442;-81
2023/06/12 06:26:10;;;;;;;17.77;9.43;;;;;;;20.44;84.27;94385.25;5036205;28;20439;-81
2023/06/12 06:28:37;;;;;;;11.30;8.10;;;;;;;20.60;84.77;94380.34;5054718;28;20446;-81
2023/06/12 06:31:07;;;;;;;15.80;10.20;;;;;;;20.77;84.71;94380.75;5054884;28;20442;-81
2023/06/12 06:33:34;;;;;;;17.37;9.80;;;;;;;20.93;84.04;94379.53;5054669;28;20982;-81
2023/06/12 06:36:01;;;;;;;12.57;9.73;;;;;;;21.08;83.07;94379.31;5054884;28;20530;-81
2023/06/12 06:38:28;;;;;;;11.73;9.13;;;;;;;21.00;82.52;94381.16;5054665;28;20505;-81
2023/06/12 06:40:56;;;;;;;9.87;8.70;;;;;;;21.08;82.91;94384.66;5054292;28;20443;-81
2023/06/12 06:43:23;;;;;;;13.40;8.50;;;;;;;21.06;84.19;94384.03;5054454;28;20483;-82
2023/06/12 06:45:49;;;;;;;14.60;9.50;;;;;;;21.10;84.31;94385.25;5054175;28;20451;-82
2023/06/12 06:48:16;;;;;;;10.67;8.97;;;;;;;20.93;83.30;94384.88;5054499;28;20466;-82
2023/06/12 06:50:43;;;;;;;15.13;8.23;;;;;;;20.91;84.11;94384.25;5054618;28;20452;-81
2023/06/12 06:53:10;;;;;;;7.87;7.17;;;;;;;20.97;84.27;94380.75;5018862;28;20436;-82
2023/06/12 06:55:38;;;;;;;10.70;7.70;;;;;;;20.85;83.06;94385.91;5054378;28;20452;-81
2023/06/12 06:58:06;;;;;;;8.83;8.00;;;;;;;20.75;83.56;94371.31;5054201;28;20942;-81
2023/06/12 07:00:33;;;;;;;11.10;8.27;;;;;;;20.81;83.84;94381.16;5054104;28;20451;-81
2023/06/12 07:03:00;;;;;;;9.83;7.47;;;;;;;20.47;84.65;94374.16;5054110;28;20493;-81
2023/06/12 07:05:27;;;;;;;9.70;7.80;;;;;;;20.46;85.94;94368.03;5054252;28;20446;-81
2023/06/12 07:07:55;;;;;;;8.40;6.70;;;;;;;20.51;87.45;94375.41;5054167;28;20439;-81
2023/06/12 07:10:22;;;;;;;8.63;7.57;;;;;;;20.55;86.77;94374.00;5053869;28;20501;-81
2023/06/12 07:12:56;;;;;;;7.83;7.00;;;;;;;20.69;86.71;94373.78;5054050;28;20462;-82
2023/06/12 07:15:25;;;;;;;7.40;6.70;;;;;;;20.95;87.01;94367.63;5054151;28;20446;-82
2023/06/12 07:17:52;;;;;;;9.13;6.97;;;;;;;20.94;84.24;94374.00;5054059;28;20576;-82
2023/06/12 07:20:19;;;;;;;9.43;8.43;;;;;;;21.17;84.78;94380.75;5054041;28;20529;-82
2023/06/12 07:22:45;;;;;;;8.87;7.67;;;;;;;21.19;81.90;94368.03;5053749;28;20535;-82
2023/06/12 07:25:12;;;;;;;7.83;7.10;;;;;;;21.16;81.48;94373.78;5053577;28;20940;-82
2023/06/12 07:27:39;;;;;;;7.00;6.30;;;;;;;21.47;82.70;94367.78;5054280;28;20803;-82
2023/06/12 07:30:07;;;;;;;8.13;6.80;;;;;;;21.68;81.85;94367.50;5053739;28;20444;-82
2023/06/12 07:32:35;;;;;;;10.13;6.40;;;;;;;21.73;80.58;94369.56;5018498;28;20437;-82
2023/06/12 07:35:02;;;;;;;7.73;6.53;;;;;;;21.94;79.02;94374.59;5053746;28;20502;-82
2023/06/12 07:37:35;;;;;;;7.13;5.70;;;;;;;21.94;78.00;94371.91;5053665;28;21080;-82
2023/06/12 07:40:04;;;;;;;8.90;6.50;;;;;;;21.74;78.33;94371.19;5053584;28;20445;-81
2023/06/12 07:42:31;;;;;;;6.10;5.57;;;;;;;21.84;77.66;94369.72;5053433;28;20663;-81
2023/06/12 07:44:58;;;;;;;6.53;5.83;;;;;;;21.79;78.63;94368.72;5053066;28;20471;-82
2023/06/12 07:47:24;;;;;;;7.13;6.40;;;;;;;21.86;78.30;94366.81;5053455;28;20461;-81
2023/06/12 07:49:53;;;;;;;8.30;7.03;;;;;;;21.87;78.92;94366.59;5053521;28;20445;-82
2023/06/12 07:52:20;;;;;;;12.00;6.40;;;;;;;22.02;79.45;94374.38;5052743;28;20475;-82
2023/06/12 07:54:47;;;;;;;11.50;5.70;;;;;;;22.05;76.76;94357.94;5052714;28;20847;-82
2023/06/12 07:57:14;;;;;;;6.90;6.17;;;;;;;22.04;75.75;94366.16;5053220;28;20495;-81
2023/06/12 07:59:42;;;;;;;6.37;5.77;;;;;;;22.05;78.09;94363.28;5053471;28;20794;-82
2023/06/12 08:02:09;;;;;;;8.73;6.20;;;;;;;22.37;78.37;94361.44;5053265;28;20527;-82
2023/06/12 08:04:40;;;;;;;6.83;6.00;;;;;;;22.50;75.36;94361.34;5052936;28;20452;-82
2023/06/12 08:07:11;;;;;;;6.60;6.00;;;;;;;22.49;75.74;94369.59;5019193;28;20455;-82
2023/06/12 08:09:39;;;;;;;6.53;6.03;;;;;;;22.49;75.88;94369.59;5053168;28;20543;-82
2023/06/12 08:12:06;;;;;;;7.13;5.93;;;;;;;22.52;74.92;94364.63;5052329;28;20522;-82
2023/06/12 08:14:33;;;;;;;6.50;6.00;;;;;;;22.77;74.96;94366.50;5052793;28;20950;-81
2023/06/12 08:17:00;;;;;;;8.17;6.90;;;;;;;22.98;76.22;94366.16;5053032;28;20483;-81
2023/06/12 08:19:28;;;;;;;6.87;6.27;;;;;;;23.05;75.17;94364.25;5052771;28;20444;-81
2023/06/12 08:21:55;;;;;;;9.33;5.87;;;;;;;23.04;72.92;94361.78;5052942;28;20473;-81
2023/06/12 08:24:23;;;;;;;8.60;5.80;;;;;;;23.17;74.69;94372.41;5052587;28;20971;-81
2023/06/12 08:26:50;;;;;;;8.30;5.80;;;;;;;23.26;72.17;94363.03;5052970;28;20504;-81
2023/06/12 08:29:16;;;;;;;11.10;6.53;;;;;;;23.45;71.73;94364.69;5052437;28;20432;-81
2023/06/12 08:31:43;;;;;;;7.20;6.50;;;;;;;23.51;71.35;94373.69;5053066;28;20455;-81
2023/06/12 08:34:10;;;;;;;8.50;6.40;;;;;;;23.48;69.67;94360.75;5052344;28;20445;-82
2023/06/12 08:36:37;;;;;;;6.87;6.10;;;;;;;23.62;69.63;94364.13;5052386;28;20502;-81
2023/06/12 08:39:04;;;;;;;7.80;6.30;;;;;;;23.95;68.17;94369.91;5052591;28;20447;-81
2023/06/12 08:41:35;;;;;;;15.20;6.30;;;;;;;24.06;67.53;94366.50;5052441;28;20480;-82
2023/06/12 08:44:03;;;;;;;13.00;6.47;;;;;;;24.23;67.87;94355.13;5052585;28;20839;-82
2023/06/12 08:46:31;;;;;;;6.40;5.80;;;;;;;23.84;68.83;94361.81;5053477;28;20431;-80
2023/06/12 08:48:59;;;;;;;11.90;6.57;;;;;;;24.18;67.99;94357.69;5053942;28;21007;-83
2023/06/12 08:51:26;;;;;;;8.07;5.93;;;;;;;24.32;67.07;94357.31;5035322;28;20448;-82
2023/06/12 08:53:54;;;;;;;11.50;5.70;;;;;;;24.60;68.33;94355.88;5053439;28;20469;-82
2023/06/12 08:56:22;;;;;;;7.23;5.83;;;;;;;24.84;67.92;94359.41;5053254;28;20446;-80
2023/06/12 08:58:50;;;;;;;10.63;6.57;;;;;;;24.93;66.59;94360.72;5053653;28;20519;-80
2023/06/12 09:01:19;;;;;;;14.30;6.33;;;;;;;24.89;66.68;94355.00;5053473;28;20442;-81
2023/06/12 09:03:54;;;;;;;7.10;6.10;;;;;;;25.22;65.72;94351.81;5018770;28;20936;-80
2023/06/12 09:06:21;;;;;;;8.10;5.80;;;;;;;25.51;64.23;94343.84;5053590;28;20445;-80
2023/06/12 09:08:48;;;;;;;6.27;5.67;;;;;;;25.85;63.39;94348.38;5053613;28;20453;-81
2023/06/12 09:11:15;;;;;;;10.70;6.90;;;;;;;26.19;61.95;94348.50;5053777;28;20441;-81
2023/06/12 09:13:42;;;;;;;6.70;5.90;;;;;;;26.30;60.71;94336.84;5018641;28;20963;-81
2023/06/12 09:16:14;;;;;;;5.70;5.20;;;;;;;25.89;58.43;94341.44;5053174;28;20529;-82
2023/06/12 09:18:51;;;;;;;12.80;6.13;;;;;;;25.96;61.03;94343.19;5053585;28;20561;-81
2023/06/12 09:21:18;;;;;;;5.67;5.27;;;;;;;25.91;61.01;94335.84;5053084;28;20441;-83
2023/06/12 09:23:47;;;;;;;9.70;6.20;;;;;;;26.01;61.36;94325.28;5053067;28;21217;-82
2023/06/12 09:26:15;;;;;;;5.73;5.23;;;;;;;26.10;60.61;94326.56;5053042;28;20492;-81
2023/06/12 09:28:43;;;;;;;8.03;5.93;;;;;;;25.87;59.92;94319.38;5053322;28;20470;-81
2023/06/12 09:31:10;;;;;;;6.30;5.40;;;;;;;25.61;59.53;94312.63;5053414;28;20525;-81
2023/06/12 09:33:40;;;;;;;6.53;5.93;;;;;;;25.47;60.42;94319.31;5053488;28;20446;-81
2023/06/12 09:36:07;;;;;;;13.90;5.77;;;;;;;25.32;61.40;94317.09;5055109;28;20479;-82
2023/06/12 09:38:36;;;;;;;9.40;6.20;;;;;;;25.16;61.92;94312.47;5019575;28;20476;-82
2023/06/12 09:41:04;;;;;;;6.47;5.77;;;;;;;25.16;63.16;94315.16;5054557;28;20448;-82
2023/06/12 09:43:31;;;;;;;8.23;5.70;;;;;;;25.14;61.92;94314.53;5054603;28;20575;-82
2023/06/12 09:45:59;;;;;;;7.97;6.03;;;;;;;25.07;62.35;94308.47;5054381;28;20848;-82
2023/06/12 09:48:32;;;;;;;8.00;5.53;;;;;;;25.06;63.66;94300.66;5053676;28;20865;-82
2023/06/12 09:51:05;;;;;;;7.73;6.67;;;;;;;24.94;63.01;94304.13;5053728;28;20441;-82
2023/06/12 09:53:36;;;;;;;5.90;5.07;;;;;;;24.91;63.80;94301.09;5053906;28;20489;-82
2023/06/12 09:56:05;;;;;;;7.70;6.07;;;;;;;24.78;63.36;94310.16;5053643;28;20457;-82
2023/06/12 09:58:35;;;;;;;7.00;5.80;;;;;;;24.69;64.54;94295.47;5052783;28;20503;-82
2023/06/12 10:01:05;;;;;;;4.80;4.40;;;;;;;24.51;59.14;94309.78;5053236;28;20450;-82
2023/06/12 10:03:36;;;;;;;5.50;5.00;;;;;;;24.32;59.12;94302.88;5052489;28;20441;-81
2023/06/12 10:06:06;;;;;;;9.90;5.03;;;;;;;24.20;59.52;94307.31;5052646;28;20882;-82
2023/06/12 10:08:34;;;;;;;5.97;4.03;;;;;;;24.06;59.69;94310.19;5051571;28;20440;-82
2023/06/12 10:11:01;;;;;;;9.03;5.47;;;;;;;23.95;59.57;94299.41;5051912;28;20441;-82
2023/06/12 10:13:29;;;;;;;8.37;5.80;;;;;;;23.87;60.59;94305.09;5017018;28;20842;-81
2023/06/12 10:15:57;;;;;;;7.97;6.30;;;;;;;23.78;61.19;94293.88;5052368;28;20486;-82
2023/06/12 10:18:26;;;;;;;6.33;4.77;;;;;;;23.77;61.01;94302.97;5055480;28;20533;-82
2023/06/12 10:20:54;;;;;;;4.73;3.60;;;;;;;23.71;59.86;94293.16;5055754;28;20441;-82
2023/06/12 10:23:23;;;;;;;9.60;4.73;;;;;;;23.61;61.14;94304.38;5055221;28;20451;-82
2023/06/12 10:25:51;;;;;;;4.63;3.70;;;;;;;23.63;61.38;94302.28;5055142;28;20858;-81
2023/06/12 10:28:19;;;;;;;5.03;3.90;;;;;;;23.62;60.35;94310.56;5055076;28;20526;-81
2023/06/12 10:31:13;;;;;;;6.40;3.67;;;;;;;23.68;60.70;94298.94;5055276;28;20792;-82
2023/06/12 10:33:57;;;;;;;8.93;3.53;;;;;;;23.64;62.56;94293.22;5055348;28;20959;-83
2023/06/12 10:36:23;;;;;;;4.83;4.43;;;;;;;23.65;64.46;94288.66;5055064;28;20890;-81
2023/06/12 10:39:00;;;;;;;7.83;4.30;;;;;;;23.57;66.04;94288.97;5054659;28;20491;-81
2023/06/12 10:41:31;;;;;;;4.03;3.73;;;;;;;23.54;68.55;94294.75;5054998;28;20445;-81
2023/06/12 10:43:58;;;;;;;4.17;3.53;;;;;;;23.45;69.02;94289.72;5054886;28;21048;-81
2023/06/12 10:46:42;;;;;;;12.70;4.70;;;;;;;23.38;69.47;94298.84;5055016;28;20449;-82
2023/06/12 10:49:12;;;;;;;4.37;3.93;;;;;;;23.34;70.67;94295.81;5055986;28;20553;-82
2023/06/12 10:51:47;;;;;;;9.63;4.30;;;;;;;23.28;70.43;94302.06;5055680;28;20535;-80
2023/06/12 10:54:25;;;;;;;8.33;3.87;;;;;;;23.31;72.46;94306.97;5055885;28;20454;-80
2023/06/12 10:57:00;;;;;;;5.57;5.07;;;;;;;23.41;76.60;94298.41;5055878;28;20527;-80
2023/06/12 10:59:31;;;;;;;7.83;4.40;;;;;;;23.54;77.81;94292.91;5056118;28;20451;-80
2023/06/12 11:01:58;;;;;;;5.93;4.30;;;;;;;23.77;77.48;94281.53;5055462;28;20791;-81
2023/06/12 11:04:25;;;;;;;5.87;4.80;;;;;;;23.96;74.28;94275.06;5055488;28;20445;-82
2023/06/12 11:06:52;;;;;;;6.50;4.87;;;;;;;24.04;70.67;94272.09;5055710;28;20476;-80
2023/06/12 11:09:21;;;;;;;9.93;4.47;;;;;;;24.06;69.12;94269.19;5020416;28;20449;-80
2023/06/12 11:11:51;;;;;;;6.03;4.20;;;;;;;24.08;67.83;94273.25;5037213;28;20442;-80
2023/06/12 11:14:18;;;;;;;4.53;4.13;;;;;;;24.04;68.61;94274.75;5055643;28;20544;-81
2023/06/12 11:16:46;;;;;;;5.70;5.20;;;;;;;24.04;70.86;94276.63;5055486;28;20456;-81
2023/06/12 11:19:13;;;;;;;7.70;4.73;;;;;;;24.04;71.11;94276.63;5055407;28;20550;-82
2023/06/12 11:21:41;;;;;;;8.30;4.80;;;;;;;23.74;72.69;94287.34;5055430;28;20471;-87
2023/06/12 11:24:10;;;;;;;6.80;4.13;;;;;;;23.49;71.25;94288.22;5055349;28;20786;-82
2023/06/12 11:26:38;;;;;;;4.57;4.17;;;;;;;23.45;70.66;94294.25;5055691;28;20436;-82
2023/06/12 11:29:15;;;;;;;7.43;4.30;;;;;;;23.36;70.50;94300.94;5019086;28;20464;-80
2023/06/12 11:31:47;;;;;;;4.13;3.80;;;;;;;23.36;70.11;94295.56;5054988;28;21301;-81
2023/06/12 11:34:13;;;;;;;6.83;5.47;;;;;;;23.32;74.02;94295.22;5055398;28;20453;-81
2023/06/12 11:36:40;;;;;;;5.77;5.27;;;;;;;23.28;76.41;94296.69;5053928;28;21003;-82
2023/06/12 11:39:17;;;;;;;8.90;5.80;;;;;;;23.21;76.83;94298.63;5053156;28;20847;-82
2023/06/12 11:41:48;;;;;;;8.50;5.30;;;;;;;23.02;77.62;94294.28;5033372;28;20859;-80